createdAt,value
2018-04-19T00:01:06.087Z,20.43
2018-04-19T00:03:33.625Z,17.97
2018-04-19T00:06:01.179Z,18.27
2018-04-19T00:08:28.708Z,15.70
2018-04-19T00:10:56.274Z,17.13
2018-04-19T00:13:23.837Z,15.67
2018-04-19T00:15:51.361Z,13.97
2018-04-19T00:18:18.888Z,15.40
2018-04-19T00:20:46.453Z,17.63
2018-04-19T00:23:13.995Z,17.07
2018-04-19T00:25:41.518Z,15.43
2018-04-19T00:28:09.082Z,17.73
2018-04-19T00:30:36.647Z,15.90
2018-04-19T00:33:04.191Z,15.10
2018-04-19T00:35:31.755Z,20.27
2018-04-19T00:37:59.291Z,16.97
2018-04-19T00:40:26.815Z,17.03
2018-04-19T00:42:54.378Z,16.77
2018-04-19T00:45:21.906Z,18.23
2018-04-19T00:47:49.459Z,16.83
2018-04-19T00:50:16.987Z,17.70
2018-04-19T00:52:56.355Z,16.80
2018-04-19T00:55:23.890Z,17.97
2018-04-19T00:57:51.417Z,17.23
2018-04-19T01:00:18.982Z,18.97
2018-04-19T01:02:46.520Z,15.73
2018-04-19T01:05:14.155Z,20.30
2018-04-19T01:07:41.682Z,15.27
2018-04-19T01:10:09.206Z,16.20
2018-04-19T01:12:36.773Z,14.17
2018-04-19T01:15:04.301Z,14.17
2018-04-19T01:17:31.835Z,12.70
2018-04-19T01:19:59.381Z,13.03
2018-04-19T01:22:26.904Z,14.57
2018-04-19T01:27:27.207Z,15.80
2018-04-19T01:29:54.735Z,14.37
2018-04-19T01:32:22.267Z,16.33
2018-04-19T01:34:49.791Z,14.07
2018-04-19T01:37:17.345Z,15.70
2018-04-19T01:39:44.866Z,13.73
2018-04-19T01:42:12.434Z,12.63
2018-04-19T01:44:39.969Z,14.63
2018-04-19T01:47:07.523Z,16.47
2018-04-19T01:49:35.057Z,16.60
2018-04-19T01:52:02.576Z,14.60
2018-04-19T01:54:30.106Z,15.70
2018-04-19T01:56:57.633Z,14.30
2018-04-19T01:59:25.154Z,13.97
2018-04-19T02:01:52.674Z,18.57
2018-04-19T02:04:20.246Z,16.63
2018-04-19T02:06:47.769Z,14.60
2018-04-19T02:09:15.294Z,20.83
2018-04-19T02:11:42.816Z,16.83
2018-04-19T02:14:10.342Z,15.83
2018-04-19T02:16:37.885Z,15.30
2018-04-19T02:19:05.411Z,19.23
2018-04-19T02:21:32.947Z,13.07
2018-04-19T02:24:00.470Z,15.13
2018-04-19T02:26:27.994Z,13.67
2018-04-19T02:28:55.522Z,18.03
2018-04-19T02:31:23.050Z,17.03
2018-04-19T02:33:50.578Z,17.53
2018-04-19T02:36:18.150Z,17.37
2018-04-19T02:38:45.683Z,15.03
2018-04-19T02:41:13.254Z,16.20
2018-04-19T02:43:40.786Z,17.90
2018-04-19T02:46:08.311Z,19.70
2018-04-19T02:48:35.841Z,18.03
2018-04-19T02:51:03.375Z,15.37
2018-04-19T02:53:30.902Z,17.50
2018-04-19T02:55:58.443Z,16.33
2018-04-19T02:58:26.002Z,20.30
2018-04-19T03:00:53.539Z,18.90
2018-04-19T03:03:21.077Z,19.43
2018-04-19T03:05:48.615Z,20.20
2018-04-19T03:08:16.129Z,19.10
2018-04-19T03:10:43.643Z,22.23
2018-04-19T03:13:11.164Z,18.53
2018-04-19T03:15:38.681Z,18.07
2018-04-19T03:18:06.196Z,22.70
2018-04-19T03:20:33.745Z,20.77
2018-04-19T03:23:01.251Z,23.00
2018-04-19T03:25:28.771Z,23.40
2018-04-19T03:27:56.287Z,21.60
2018-04-19T03:30:23.812Z,22.03
2018-04-19T03:32:51.324Z,20.50
2018-04-19T03:35:18.831Z,23.73
2018-04-19T03:37:46.355Z,24.10
2018-04-19T03:40:13.867Z,20.60
2018-04-19T03:42:41.367Z,23.97
2018-04-19T03:45:08.867Z,28.77
2018-04-19T03:47:36.419Z,22.93
2018-04-19T03:50:03.935Z,24.30
2018-04-19T03:52:31.440Z,22.00
2018-04-19T03:54:58.947Z,21.63
2018-04-19T03:57:26.461Z,23.07
2018-04-19T03:59:53.982Z,27.33
2018-04-19T04:02:21.484Z,21.93
2018-04-19T04:04:48.988Z,22.03
2018-04-19T04:07:16.495Z,22.67
2018-04-19T04:09:44.048Z,23.47
2018-04-19T04:12:11.600Z,23.03
2018-04-19T04:14:39.144Z,23.63
2018-04-19T04:17:18.513Z,21.57
2018-04-19T04:19:57.993Z,20.50
2018-04-19T04:22:37.368Z,21.40
2018-04-19T04:25:05.739Z,22.73
2018-04-19T04:27:33.283Z,20.67
2018-04-19T04:30:00.833Z,24.23
2018-04-19T04:32:28.365Z,21.97
2018-04-19T04:34:55.915Z,21.13
2018-04-19T04:37:23.435Z,21.70
2018-04-19T04:39:50.982Z,23.43
2018-04-19T04:42:18.499Z,23.67
2018-04-19T04:44:46.005Z,20.80
2018-04-19T04:47:13.525Z,21.80
2018-04-19T04:49:41.029Z,22.23
2018-04-19T04:52:08.539Z,20.70
2018-04-19T04:54:36.056Z,21.13
2018-04-19T04:57:03.570Z,21.03
2018-04-19T04:59:31.093Z,19.90
2018-04-19T05:01:58.594Z,22.43
2018-04-19T05:04:26.153Z,20.50
2018-04-19T05:06:53.720Z,21.07
2018-04-19T05:09:21.235Z,22.50
2018-04-19T05:11:48.772Z,18.83
2018-04-19T05:14:16.332Z,20.00
2018-04-19T05:16:43.847Z,20.70
2018-04-19T05:19:11.355Z,21.60
2018-04-19T05:21:38.881Z,19.23
2018-04-19T05:24:06.425Z,16.73
2018-04-19T05:26:33.974Z,19.30
2018-04-19T05:29:01.484Z,16.83
2018-04-19T05:31:29.028Z,22.03
2018-04-19T05:33:56.543Z,20.80
2018-04-19T05:36:24.091Z,21.70
2018-04-19T05:38:51.605Z,21.53
2018-04-19T05:41:19.233Z,20.30
2018-04-19T05:43:46.901Z,21.67
2018-04-19T05:46:14.414Z,18.53
2018-04-19T05:48:41.943Z,18.07
2018-04-19T05:51:09.448Z,20.77
2018-04-19T05:53:37.043Z,15.83
2018-04-19T05:56:04.557Z,18.47
2018-04-19T05:58:32.087Z,17.27
2018-04-19T06:00:59.598Z,19.90
2018-04-19T06:03:27.106Z,19.70
2018-04-19T06:05:54.644Z,19.67
2018-04-19T06:08:22.159Z,16.93
2018-04-19T06:10:49.754Z,17.03
2018-04-19T06:13:17.263Z,15.90
2018-04-19T06:15:44.764Z,15.70
2018-04-19T06:18:12.297Z,16.17
2018-04-19T06:20:39.875Z,18.20
2018-04-19T06:23:07.404Z,15.20
2018-04-19T06:25:34.921Z,15.50
2018-04-19T06:28:02.452Z,16.00
2018-04-19T06:30:29.968Z,13.77
2018-04-19T06:32:57.469Z,13.43
2018-04-19T06:35:25.011Z,14.57
2018-04-19T06:37:52.515Z,16.03
2018-04-19T06:40:20.060Z,13.70
2018-04-19T06:42:47.577Z,13.93
2018-04-19T06:45:15.088Z,13.93
2018-04-19T06:47:42.637Z,14.53
2018-04-19T06:50:10.299Z,19.40
2018-04-19T06:52:37.807Z,16.67
2018-04-19T06:55:05.307Z,17.60
2018-04-19T06:57:32.841Z,15.93
2018-04-19T07:00:00.395Z,15.20
2018-04-19T07:02:27.935Z,13.67
2018-04-19T07:04:55.440Z,16.23
2018-04-19T07:07:22.952Z,16.20
2018-04-19T07:09:50.573Z,17.77
2018-04-19T07:12:18.133Z,17.10
2018-04-19T07:14:45.732Z,16.07
2018-04-19T07:17:13.231Z,15.37
2018-04-19T07:19:40.755Z,16.83
2018-04-19T07:22:08.266Z,16.67
2018-04-19T07:24:35.799Z,15.10
2018-04-19T07:27:03.348Z,14.70
2018-04-19T07:29:30.896Z,14.73
2018-04-19T07:31:59.319Z,15.67
2018-04-19T07:34:26.867Z,16.60
2018-04-19T07:36:54.375Z,16.90
2018-04-19T07:39:21.889Z,16.30
2018-04-19T07:41:49.431Z,17.30
2018-04-19T07:44:16.971Z,17.33
2018-04-19T07:46:44.480Z,15.07
2018-04-19T07:49:11.991Z,14.95
2018-04-19T07:51:39.555Z,15.85
2018-04-19T07:54:07.143Z,17.25
2018-04-19T07:56:34.718Z,15.00
2018-04-19T07:59:02.237Z,19.58
2018-04-19T08:01:29.747Z,15.98
2018-04-19T08:03:57.287Z,13.77
2018-04-19T08:06:24.787Z,16.20
2018-04-19T08:08:52.398Z,15.00
2018-04-19T08:11:19.978Z,16.55
2018-04-19T08:13:47.448Z,16.10
2018-04-19T08:16:14.958Z,18.95
2018-04-19T08:18:42.488Z,14.13
2018-04-19T08:21:10.004Z,14.85
2018-04-19T08:23:37.570Z,15.80
2018-04-19T08:26:05.129Z,13.15
2018-04-19T08:28:32.636Z,13.18
2018-04-19T08:31:00.152Z,13.15
2018-04-19T08:33:27.709Z,14.00
2018-04-19T08:35:55.254Z,13.18
2018-04-19T08:38:22.767Z,14.87
2018-04-19T08:40:50.306Z,15.70
2018-04-19T08:43:17.823Z,12.50
2018-04-19T08:45:45.390Z,16.52
2018-04-19T08:48:12.892Z,11.60
2018-04-19T08:50:40.401Z,15.80
2018-04-19T08:53:07.979Z,16.42
2018-04-19T08:55:35.489Z,15.65
2018-04-19T08:58:03.035Z,11.90
2018-04-19T09:00:30.579Z,10.90
2018-04-19T09:02:58.091Z,10.95
2018-04-19T09:05:25.611Z,12.07
2018-04-19T09:07:53.163Z,17.35
2018-04-19T09:10:20.720Z,13.55
2018-04-19T09:12:48.229Z,15.30
2018-04-19T09:15:15.796Z,13.35
2018-04-19T09:17:43.373Z,15.43
2018-04-19T09:20:10.883Z,15.32
2018-04-19T09:22:38.416Z,13.18
2018-04-19T09:25:05.939Z,11.00
2018-04-19T09:27:33.447Z,14.85
2018-04-19T09:30:01.069Z,13.68
2018-04-19T09:32:28.586Z,13.95
2018-04-19T09:34:56.197Z,12.32
2018-04-19T09:37:23.695Z,13.60
2018-04-19T09:39:51.238Z,14.00
2018-04-19T09:42:18.740Z,13.23
2018-04-19T09:44:46.248Z,13.60
2018-04-19T09:47:13.755Z,14.05
2018-04-19T09:49:41.284Z,17.15
2018-04-19T09:52:08.865Z,13.05
2018-04-19T09:54:36.381Z,10.00
2018-04-19T09:57:03.897Z,15.38
2018-04-19T09:59:31.408Z,12.65
2018-04-19T10:02:03.876Z,13.05
2018-04-19T10:04:33.803Z,12.27
2018-04-19T10:07:01.311Z,10.43
2018-04-19T10:09:28.822Z,15.05
2018-04-19T10:11:56.336Z,15.93
2018-04-19T10:14:23.873Z,19.00
2018-04-19T10:16:51.371Z,9.18
2018-04-19T10:19:19.049Z,25.25
2018-04-19T10:21:46.561Z,11.70
2018-04-19T10:24:14.065Z,9.73
2018-04-19T10:26:41.570Z,10.02
2018-04-19T10:29:09.077Z,12.15
2018-04-19T10:31:36.589Z,10.73
2018-04-19T10:34:04.113Z,13.70
2018-04-19T10:36:31.632Z,13.45
2018-04-19T10:38:59.143Z,11.32
2018-04-19T10:41:26.881Z,11.02
2018-04-19T10:43:54.397Z,12.35
2018-04-19T10:46:21.909Z,8.50
2018-04-19T10:48:49.425Z,14.27
2018-04-19T10:51:16.946Z,9.98
2018-04-19T10:53:44.475Z,10.75
2018-04-19T10:56:11.979Z,11.85
2018-04-19T10:58:39.487Z,11.68
2018-04-19T11:01:07.022Z,10.85
2018-04-19T11:03:34.538Z,11.45
2018-04-19T11:06:02.100Z,9.65
2018-04-19T11:08:29.604Z,9.93
2018-04-19T11:10:57.111Z,10.98
2018-04-19T11:13:24.632Z,9.60
2018-04-19T11:15:52.281Z,11.35
2018-04-19T11:18:19.806Z,9.85
2018-04-19T11:20:47.322Z,10.57
2018-04-19T11:23:14.827Z,10.75
2018-04-19T11:25:42.324Z,10.32
2018-04-19T11:28:09.865Z,9.65
2018-04-19T11:30:37.447Z,10.63
2018-04-19T11:33:04.932Z,10.10
2018-04-19T11:35:32.437Z,10.85
2018-04-19T11:37:59.943Z,11.98
2018-04-19T11:40:27.457Z,10.27
2018-04-19T11:42:55.012Z,12.70
2018-04-19T11:45:22.586Z,11.30
2018-04-19T11:47:50.138Z,8.40
2018-04-19T11:50:17.687Z,13.05
2018-04-19T11:52:45.207Z,10.40
2018-04-19T11:55:12.869Z,10.32
2018-04-19T11:57:40.380Z,9.05
2018-04-19T12:00:07.903Z,10.13
2018-04-19T12:02:35.412Z,9.63
2018-04-19T12:05:02.921Z,11.65
2018-04-19T12:07:30.490Z,8.25
2018-04-19T12:09:57.993Z,8.57
2018-04-19T12:12:25.507Z,9.23
2018-04-19T12:14:53.071Z,14.65
2018-04-19T12:17:20.587Z,11.55
2018-04-19T12:19:48.105Z,15.05
2018-04-19T12:22:15.696Z,11.40
2018-04-19T12:24:43.211Z,9.63
2018-04-19T12:27:10.724Z,12.40
2018-04-19T12:29:38.242Z,13.60
2018-04-19T12:32:05.770Z,10.73
2018-04-19T12:34:33.342Z,16.07
2018-04-19T12:37:00.934Z,9.13
2018-04-19T12:39:28.451Z,10.93
2018-04-19T12:41:55.956Z,11.50
2018-04-19T12:44:23.516Z,9.80
2018-04-19T12:46:51.075Z,12.30
2018-04-19T12:49:18.593Z,8.90
2018-04-19T12:51:46.107Z,11.45
2018-04-19T12:54:13.647Z,13.02
2018-04-19T12:56:41.159Z,11.68
2018-04-19T12:59:08.698Z,9.13
2018-04-19T13:01:36.243Z,12.15
2018-04-19T13:04:03.748Z,12.17
2018-04-19T13:06:31.364Z,9.53
2018-04-19T13:08:58.816Z,10.77
2018-04-19T13:11:26.463Z,12.73
2018-04-19T13:13:53.974Z,12.53
2018-04-19T13:16:21.534Z,11.70
2018-04-19T13:18:49.084Z,14.93
2018-04-19T13:21:16.606Z,14.10
2018-04-19T13:23:44.162Z,13.63
2018-04-19T13:26:11.680Z,11.73
2018-04-19T13:28:39.249Z,14.80
2018-04-19T13:31:06.792Z,12.47
2018-04-19T13:33:34.312Z,13.47
2018-04-19T13:36:01.864Z,12.33
2018-04-19T13:38:29.400Z,14.97
2018-04-19T13:40:56.943Z,12.93
2018-04-19T13:43:24.449Z,16.13
2018-04-19T13:45:51.970Z,16.93
2018-04-19T13:48:19.484Z,12.27
2018-04-19T13:50:46.990Z,16.37
2018-04-19T13:53:14.491Z,14.53
2018-04-19T13:55:42.026Z,17.40
2018-04-19T13:58:09.538Z,15.47
2018-04-19T14:00:37.053Z,14.50
2018-04-19T14:03:04.600Z,13.10
2018-04-19T14:05:32.171Z,13.33
2018-04-19T14:07:59.675Z,13.93
2018-04-19T14:10:27.191Z,14.13
2018-04-19T14:12:54.739Z,15.53
2018-04-19T14:15:22.375Z,17.00
2018-04-19T14:17:49.880Z,18.67
2018-04-19T14:20:17.394Z,17.27
2018-04-19T14:22:44.978Z,16.30
2018-04-19T14:25:12.508Z,23.57
2018-04-19T14:27:40.020Z,19.33
2018-04-19T14:30:07.523Z,18.97
2018-04-19T14:32:35.032Z,17.87
2018-04-19T14:35:02.575Z,18.77
2018-04-19T14:37:30.071Z,16.97
2018-04-19T14:39:57.619Z,17.70
2018-04-19T14:42:25.132Z,16.87
2018-04-19T14:44:52.634Z,17.63
2018-04-19T14:47:20.161Z,18.50
2018-04-19T14:49:47.703Z,18.80
2018-04-19T14:52:15.211Z,18.90
2018-04-19T14:54:42.713Z,17.00
2018-04-19T14:57:10.214Z,24.30
2018-04-19T14:59:37.724Z,20.43
2018-04-19T15:02:05.234Z,18.17
2018-04-19T15:04:32.777Z,23.93
2018-04-19T15:07:00.289Z,21.03
2018-04-19T15:09:27.828Z,17.73
2018-04-19T15:11:55.339Z,21.33
2018-04-19T15:14:22.894Z,23.53
2018-04-19T15:16:50.444Z,18.23
2018-04-19T15:19:17.951Z,20.00
2018-04-19T15:21:45.474Z,21.13
2018-04-19T15:24:13.038Z,20.50
2018-04-19T15:26:40.539Z,17.80
2018-04-19T15:29:08.064Z,19.97
2018-04-19T15:31:35.572Z,16.30
2018-04-19T15:34:03.117Z,17.07
2018-04-19T15:36:31.641Z,18.17
2018-04-19T15:38:59.186Z,16.17
2018-04-19T15:41:26.788Z,14.97
2018-04-19T15:43:54.335Z,22.40
2018-04-19T15:46:21.823Z,16.77
2018-04-19T15:48:49.339Z,16.53
2018-04-19T15:51:16.839Z,19.70
2018-04-19T15:53:44.340Z,16.00
2018-04-19T15:56:11.860Z,15.57
2018-04-19T15:58:39.802Z,17.27
2018-04-19T16:01:07.371Z,16.33
2018-04-19T16:03:34.929Z,18.00
2018-04-19T16:06:02.474Z,14.07
2018-04-19T16:08:29.988Z,13.77
2018-04-19T16:10:57.543Z,15.53
2018-04-19T16:13:25.067Z,13.30
2018-04-19T16:15:52.576Z,15.27
2018-04-19T16:18:20.121Z,14.57
2018-04-19T16:20:47.624Z,13.20
2018-04-19T16:23:15.188Z,13.07
2018-04-19T16:25:42.691Z,11.83
2018-04-19T16:28:10.218Z,11.93
2018-04-19T16:30:37.722Z,12.23
2018-04-19T16:33:05.262Z,13.63
2018-04-19T16:35:32.782Z,10.87
2018-04-19T16:38:00.303Z,12.23
2018-04-19T16:40:27.923Z,12.03
2018-04-19T16:42:55.439Z,13.77
2018-04-19T16:45:22.975Z,15.40
2018-04-19T16:47:50.479Z,13.90
2018-04-19T16:50:17.978Z,14.73
2018-04-19T16:52:45.504Z,10.13
2018-04-19T16:55:13.495Z,9.93
2018-04-19T16:57:40.994Z,10.83
2018-04-19T17:00:08.655Z,10.70
2018-04-19T17:02:36.174Z,12.53
2018-04-19T17:05:03.705Z,9.23
2018-04-19T17:07:31.210Z,13.37
2018-04-19T17:09:58.718Z,10.43
2018-04-19T17:12:26.291Z,10.90
2018-04-19T17:14:53.798Z,9.63
2018-04-19T17:17:21.368Z,8.00
2018-04-19T17:19:50.058Z,10.07
2018-04-19T17:22:17.631Z,11.73
2018-04-19T17:24:45.123Z,7.93
2018-04-19T17:27:12.634Z,9.80
2018-04-19T17:29:40.580Z,7.67
2018-04-19T17:32:08.239Z,9.17
2018-04-19T17:34:36.825Z,12.37
2018-04-19T17:37:04.360Z,10.87
2018-04-19T17:39:32.043Z,8.03
2018-04-19T17:41:59.695Z,9.03
2018-04-19T17:44:27.359Z,9.43
2018-04-19T17:46:54.881Z,8.13
2018-04-19T17:49:22.870Z,9.60
2018-04-19T17:51:50.399Z,10.80
2018-04-19T17:54:17.982Z,8.90
2018-04-19T17:56:46.463Z,10.40
2018-04-19T17:59:14.006Z,10.37
2018-04-19T18:01:42.329Z,14.83
2018-04-19T18:04:09.962Z,16.20
2018-04-19T18:06:37.509Z,12.03
2018-04-19T18:09:05.828Z,12.90
2018-04-19T18:11:34.150Z,11.53
2018-04-19T18:14:01.657Z,9.97
2018-04-19T18:16:30.113Z,11.97
2018-04-19T18:18:57.640Z,8.33
2018-04-19T18:21:25.151Z,11.90
2018-04-19T18:23:52.762Z,9.27
2018-04-19T18:26:20.267Z,10.43
2018-04-19T18:28:47.806Z,13.37
2018-04-19T18:31:15.370Z,10.60
2018-04-19T18:33:42.922Z,10.87
2018-04-19T18:36:10.905Z,9.87
2018-04-19T18:38:38.403Z,11.60
2018-04-19T18:41:05.959Z,14.60
2018-04-19T18:43:33.460Z,9.03
2018-04-19T18:46:00.962Z,7.67
2018-04-19T18:48:28.469Z,8.47
2018-04-19T18:50:55.985Z,7.73
2018-04-19T18:53:23.556Z,8.17
2018-04-19T18:55:51.100Z,8.97
2018-04-19T18:58:18.631Z,11.43
2018-04-19T19:00:46.196Z,9.00
2018-04-19T19:03:13.721Z,10.20
2018-04-19T19:05:41.228Z,9.53
2018-04-19T19:08:08.733Z,7.27
2018-04-19T19:10:36.246Z,7.77
2018-04-19T19:13:03.815Z,7.83
2018-04-19T19:18:59.073Z,6.63
2018-04-19T19:21:26.590Z,8.47
2018-04-19T19:23:54.185Z,7.40
2018-04-19T19:26:21.797Z,5.97
2018-04-19T19:28:49.300Z,6.77
2018-04-19T19:31:16.885Z,7.20
2018-04-19T19:33:44.444Z,7.10
2018-04-19T19:36:12.020Z,9.60
2018-04-19T19:38:39.560Z,8.97
2018-04-19T19:41:07.061Z,6.27
2018-04-19T19:43:34.599Z,6.93
2018-04-19T19:46:02.143Z,7.80
2018-04-19T19:48:29.647Z,9.07
2018-04-19T19:50:57.138Z,7.10
2018-04-19T19:53:25.452Z,7.73
2018-04-19T19:55:53.003Z,7.83
2018-04-19T19:58:20.554Z,6.20
2018-04-19T20:00:48.063Z,8.80
2018-04-19T20:03:15.604Z,6.57
2018-04-19T20:05:43.122Z,8.70
2018-04-19T20:08:10.636Z,9.27
2018-04-19T20:10:38.166Z,7.10
2018-04-19T20:13:05.662Z,8.47
2018-04-19T20:15:33.237Z,6.70
2018-04-19T20:18:00.775Z,7.83
2018-04-19T20:20:28.287Z,5.90
2018-04-19T20:22:55.788Z,6.10
2018-04-19T20:25:23.328Z,6.43
2018-04-19T20:27:50.828Z,6.03
2018-04-19T20:30:18.370Z,7.83
2018-04-19T20:32:45.923Z,6.07
2018-04-19T20:35:13.427Z,6.53
2018-04-19T20:37:40.926Z,8.83
2018-04-19T20:40:08.431Z,8.30
2018-04-19T20:42:35.938Z,7.70
2018-04-19T20:45:03.444Z,13.43
2018-04-19T20:47:30.931Z,9.20
2018-04-19T20:49:58.429Z,9.20
2018-04-19T20:52:25.923Z,8.87
2018-04-19T20:54:53.477Z,7.27
2018-04-19T20:57:21.028Z,6.67
2018-04-19T20:59:48.520Z,5.97
2018-04-19T21:02:16.028Z,7.00
2018-04-19T21:04:43.588Z,6.23
2018-04-19T21:07:11.099Z,5.67
2018-04-19T21:09:38.692Z,5.73
2018-04-19T21:12:06.200Z,7.83
2018-04-19T21:14:33.700Z,8.20
2018-04-19T21:17:01.211Z,8.37
2018-04-19T21:19:29.087Z,6.30
2018-04-19T21:21:56.594Z,8.53
2018-04-19T21:24:24.102Z,8.50
2018-04-19T21:26:51.611Z,7.13
2018-04-19T21:29:19.112Z,6.83
2018-04-19T21:31:46.609Z,8.07
2018-04-19T21:34:14.159Z,7.07
2018-04-19T21:36:41.668Z,7.93
2018-04-19T21:39:09.205Z,6.87
2018-04-19T21:41:36.763Z,7.10
2018-04-19T21:44:04.276Z,8.17
2018-04-19T21:46:31.769Z,5.40
2018-04-19T21:48:59.264Z,6.27
2018-04-19T21:51:26.819Z,5.83
2018-04-19T21:53:54.327Z,5.90
2018-04-19T21:56:21.834Z,5.77
2018-04-19T21:58:49.337Z,4.97
2018-04-19T22:01:16.835Z,4.40
2018-04-19T22:03:44.361Z,4.50
2018-04-19T22:06:11.928Z,5.93
2018-04-19T22:08:39.436Z,5.57
2018-04-19T22:11:06.947Z,6.80
2018-04-19T22:13:34.476Z,4.73
2018-04-19T22:16:02.013Z,5.73
2018-04-19T22:18:29.577Z,5.00
2018-04-19T22:20:57.104Z,4.03
2018-04-19T22:23:24.685Z,3.63
2018-04-19T22:25:52.229Z,4.53
2018-04-19T22:28:19.771Z,4.70
2018-04-19T22:30:47.358Z,5.33
2018-04-19T22:33:14.906Z,5.30
2018-04-19T22:35:42.408Z,6.67
2018-04-19T22:38:10.022Z,3.60
2018-04-19T22:40:37.543Z,4.43
2018-04-19T22:43:05.085Z,6.07
2018-04-19T22:45:32.664Z,3.93
2018-04-19T22:48:00.196Z,3.77
2018-04-19T22:50:27.785Z,4.90
2018-04-19T22:52:55.376Z,4.40
2018-04-19T22:55:22.922Z,4.93
2018-04-19T22:57:50.456Z,4.43
2018-04-19T23:00:18.112Z,5.93
2018-04-19T23:02:45.621Z,4.90
2018-04-19T23:05:13.919Z,5.53
2018-04-19T23:07:41.460Z,3.10
2018-04-19T23:10:08.993Z,4.03
2018-04-19T23:12:36.514Z,3.50
2018-04-19T23:15:04.049Z,3.30
2018-04-19T23:17:31.586Z,4.53
2018-04-19T23:19:59.143Z,7.17
2018-04-19T23:22:34.430Z,6.60
2018-04-19T23:25:01.990Z,4.50
2018-04-19T23:27:29.489Z,4.17
2018-04-19T23:29:57.026Z,5.60
2018-04-19T23:32:24.580Z,3.57
2018-04-19T23:34:52.125Z,3.53
2018-04-19T23:37:19.664Z,6.50
2018-04-19T23:39:47.202Z,4.03
2018-04-19T23:42:14.763Z,4.40
2018-04-19T23:44:42.311Z,4.10
2018-04-19T23:47:09.835Z,5.30
2018-04-19T23:49:37.369Z,5.10
2018-04-19T23:52:04.902Z,4.37
2018-04-19T23:54:32.431Z,5.93
2018-04-19T23:56:59.939Z,3.87
2018-04-19T23:59:27.478Z,4.33
